Time;durP1;ratioP1;P1;durP2;ratioP2;P2;SDS_P1;SDS_P2;PMS_P1;PMS_P2;Temp;Humidity;BMP_temperature;BMP_pressure;BME280_temperature;BME280_humidity;BME280_pressure;Samples;Min_cycle;Max_cycle;Signal;HPM_P1;HPM_P2
2022/05/09 00:00:20;;;;;;;5.07;3.17;;;19.80;74.50;;;;;;6368552;22;20002;-75
2022/05/09 00:02:47;;;;;;;3.50;3.20;;;19.80;74.60;;;;;;6368655;22;20034;-75
2022/05/09 00:05:16;;;;;;;5.53;3.60;;;19.80;75.70;;;;;;6368725;22;20302;-75
2022/05/09 00:07:44;;;;;;;7.97;3.92;;;19.80;76.10;;;;;;6340548;22;19999;-75
2022/05/09 00:10:11;;;;;;;5.00;3.38;;;19.80;76.80;;;;;;6369136;22;20005;-75
2022/05/09 00:12:37;;;;;;;4.30;3.90;;;19.80;77.50;;;;;;6369376;22;20006;-74
2022/05/09 00:15:04;;;;;;;4.82;3.40;;;19.80;77.70;;;;;;6370106;22;20002;-75
2022/05/09 00:17:30;;;;;;;5.20;3.63;;;19.80;77.80;;;;;;6370585;22;20002;-75
2022/05/09 00:19:56;;;;;;;4.60;3.58;;;19.80;77.90;;;;;;6370816;22;20124;-75
2022/05/09 00:22:22;;;;;;;7.72;3.95;;;19.80;78.20;;;;;;6371092;22;20038;-75
2022/05/09 00:24:47;;;;;;;5.40;4.07;;;19.80;78.30;;;;;;6371442;22;19995;-75
2022/05/09 00:27:13;;;;;;;5.05;3.53;;;19.80;78.10;;;;;;6370160;22;20381;-75
2022/05/09 00:29:39;;;;;;;7.85;4.32;;;19.80;78.00;;;;;;6370921;22;20471;-75
2022/05/09 00:32:05;;;;;;;5.65;3.72;;;19.80;78.40;;;;;;6371299;22;20009;-75
2022/05/09 00:34:31;;;;;;;5.40;4.15;;;19.70;78.50;;;;;;6343148;22;20439;-76
2022/05/09 00:36:57;;;;;;;3.97;3.35;;;19.70;78.00;;;;;;6369865;22;20002;-76
2022/05/09 00:39:23;;;;;;;4.75;3.83;;;19.60;77.60;;;;;;6343872;22;20003;-75
2022/05/09 00:41:49;;;;;;;7.15;3.50;;;19.60;77.90;;;;;;6370962;22;20002;-74
2022/05/09 00:44:26;;;;;;;4.88;3.42;;;19.60;77.20;;;;;;6343546;22;20078;-74
2022/05/09 00:46:53;;;;;;;5.10;3.60;;;19.60;76.90;;;;;;6370459;22;20690;-75
2022/05/09 00:49:33;;;;;;;4.45;3.38;;;19.60;77.80;;;;;;6370079;22;20335;-76
2022/05/09 00:52:24;;;;;;;8.30;4.00;;;19.60;77.40;;;;;;6370693;22;20476;-75
2022/05/09 00:55:04;;;;;;;6.38;3.80;;;19.60;77.60;;;;;;6370939;22;20026;-74
2022/05/09 00:57:38;;;;;;;4.97;3.40;;;19.60;77.90;;;;;;6371230;22;20002;-75
2022/05/09 01:00:16;;;;;;;5.97;3.67;;;19.60;78.10;;;;;;6370535;22;20013;-75
2022/05/09 01:02:49;;;;;;;4.07;3.22;;;19.60;77.90;;;;;;6370583;22;20034;-75
2022/05/09 01:05:16;;;;;;;5.35;3.50;;;19.60;78.10;;;;;;6370442;22;20078;-75
2022/05/09 01:07:42;;;;;;;8.20;4.20;;;19.50;78.50;;;;;;6370627;22;20018;-75
2022/05/09 01:10:09;;;;;;;3.90;3.35;;;19.50;79.70;;;;;;6342475;22;20392;-74
2022/05/09 01:12:37;;;;;;;5.90;3.75;;;19.40;78.60;;;;;;6370163;22;20006;-74
2022/05/09 01:15:07;;;;;;;5.38;3.45;;;19.40;78.90;;;;;;6371058;22;20002;-75
2022/05/09 01:17:34;;;;;;;4.43;4.00;;;19.50;79.50;;;;;;6369223;22;19998;-74
2022/05/09 01:20:01;;;;;;;5.25;4.10;;;19.50;80.20;;;;;;6369656;22;20455;-75
2022/05/09 01:22:29;;;;;;;6.78;3.85;;;19.50;81.00;;;;;;6369415;22;20005;-74
2022/05/09 01:24:57;;;;;;;6.90;3.88;;;19.50;81.70;;;;;;6370231;22;20453;-74
2022/05/09 01:27:23;;;;;;;3.72;3.33;;;19.50;81.50;;;;;;6342662;22;20002;-74
2022/05/09 01:30:00;;;;;;;3.80;3.40;;;19.40;81.60;;;;;;6370032;22;20472;-74
2022/05/09 01:32:39;;;;;;;5.75;3.70;;;19.40;81.70;;;;;;6370010;22;20405;-74
2022/05/09 01:35:10;;;;;;;5.60;4.07;;;19.40;82.00;;;;;;6370275;22;20562;-75
2022/05/09 01:37:37;;;;;;;4.50;4.10;;;19.40;82.20;;;;;;6369760;22;20443;-75
2022/05/09 01:40:04;;;;;;;4.43;4.00;;;19.40;82.00;;;;;;6369992;22;20009;-74
2022/05/09 01:42:29;;;;;;;5.43;3.53;;;19.40;82.10;;;;;;6370171;22;20006;-74
2022/05/09 01:44:55;;;;;;;5.53;4.40;;;19.30;81.90;;;;;;6370573;22;19999;-75
2022/05/09 01:50:06;;;;;;;4.63;4.07;;;19.30;82.00;;;;;;6370409;22;20044;-74
2022/05/09 01:52:32;;;;;;;4.20;3.80;;;19.30;82.20;;;;;;6370413;22;20025;-74
2022/05/09 01:54:58;;;;;;;4.30;3.63;;;19.30;82.40;;;;;;6370214;22;20417;-74
2022/05/09 01:57:23;;;;;;;5.28;4.60;;;19.30;82.00;;;;;;6370380;22;20098;-74
2022/05/09 01:59:49;;;;;;;7.05;3.92;;;19.30;81.80;;;;;;6369193;22;20082;-74
2022/05/09 02:02:18;;;;;;;4.25;3.85;;;19.30;81.20;;;;;;6341971;22;20305;-75
2022/05/09 02:04:44;;;;;;;4.63;3.95;;;19.30;81.00;;;;;;6369732;22;20447;-74
2022/05/09 02:07:13;;;;;;;4.18;3.78;;;19.20;80.40;;;;;;6369870;22;19995;-75
2022/05/09 02:09:45;;;;;;;3.92;3.45;;;19.20;80.50;;;;;;6369472;22;20278;-75
2022/05/09 02:12:12;;;;;;;4.57;4.15;;;19.30;80.50;;;;;;6370600;22;20002;-75
2022/05/09 02:14:39;;;;;;;5.10;3.90;;;19.20;80.30;;;;;;6370046;22;20003;-75
2022/05/09 02:17:09;;;;;;;4.05;3.55;;;19.20;79.90;;;;;;6370254;22;20025;-75
2022/05/09 02:19:35;;;;;;;4.60;3.60;;;19.20;80.40;;;;;;6370696;22;20005;-74
2022/05/09 02:22:01;;;;;;;5.30;4.10;;;19.20;80.10;;;;;;6369003;22;20059;-75
2022/05/09 02:24:28;;;;;;;4.90;3.72;;;19.20;79.80;;;;;;6370382;22;20026;-75
2022/05/09 02:26:54;;;;;;;5.90;3.80;;;19.20;79.50;;;;;;6369060;22;20401;-75
2022/05/09 02:29:21;;;;;;;5.72;4.13;;;19.20;79.80;;;;;;6369394;22;19998;-75
2022/05/09 02:31:46;;;;;;;5.18;4.15;;;19.20;80.20;;;;;;6341504;22;20381;-75
2022/05/09 02:34:13;;;;;;;6.07;3.83;;;19.10;80.30;;;;;;6370035;22;19999;-75
2022/05/09 02:36:39;;;;;;;4.38;3.83;;;19.10;80.70;;;;;;6369743;22;20383;-75
2022/05/09 02:39:05;;;;;;;4.63;3.75;;;19.10;80.90;;;;;;6369740;22;20038;-75
2022/05/09 02:41:31;;;;;;;4.13;3.78;;;19.10;81.00;;;;;;6369557;22;20009;-75
2022/05/09 02:43:57;;;;;;;4.95;4.13;;;19.00;81.10;;;;;;6369730;22;20376;-75
2022/05/09 02:46:23;;;;;;;5.15;4.22;;;19.00;80.90;;;;;;6370112;22;20002;-75
2022/05/09 02:48:49;;;;;;;4.65;4.25;;;18.90;81.10;;;;;;6369461;22;20013;-74
2022/05/09 02:51:15;;;;;;;5.50;4.20;;;18.90;81.10;;;;;;6370044;22;19998;-75
2022/05/09 02:53:41;;;;;;;4.95;4.40;;;18.90;81.20;;;;;;6369444;22;20006;-75
2022/05/09 02:56:07;;;;;;;4.57;4.03;;;18.80;81.40;;;;;;6369785;22;20081;-76
2022/05/09 02:58:34;;;;;;;5.15;4.20;;;18.80;81.40;;;;;;6370117;22;20044;-75
2022/05/09 03:00:59;;;;;;;4.47;4.05;;;18.80;81.50;;;;;;6369269;22;20009;-75
2022/05/09 03:06:09;;;;;;;4.57;4.05;;;18.80;81.70;;;;;;6369167;22;20102;-75
2022/05/09 03:08:35;;;;;;;5.95;4.53;;;18.70;81.70;;;;;;6369182;22;20040;-75
2022/05/09 03:11:01;;;;;;;5.40;4.10;;;18.70;81.60;;;;;;6369629;22;20006;-75
2022/05/09 03:13:27;;;;;;;5.15;4.30;;;18.70;81.80;;;;;;6342108;22;20085;-75
2022/05/09 03:15:53;;;;;;;6.13;4.65;;;18.70;82.00;;;;;;6369655;22;20073;-75
2022/05/09 03:18:24;;;;;;;4.70;4.22;;;18.60;82.10;;;;;;6368762;22;20290;-75
2022/05/09 03:20:51;;;;;;;4.60;4.18;;;18.60;82.30;;;;;;6368092;22;20002;-75
2022/05/09 03:23:17;;;;;;;5.18;4.65;;;18.60;82.50;;;;;;6369352;22;20404;-75
2022/05/09 03:25:42;;;;;;;5.93;4.25;;;18.60;82.70;;;;;;6368807;22;20463;-75
2022/05/09 03:28:12;;;;;;;5.45;4.30;;;18.60;82.70;;;;;;6370081;22;19994;-75
2022/05/09 03:30:38;;;;;;;9.97;5.63;;;18.50;82.90;;;;;;6368753;22;19998;-74
2022/05/09 03:33:04;;;;;;;5.70;4.63;;;18.40;82.00;;;;;;6368476;22;20487;-74
2022/05/09 03:35:30;;;;;;;6.88;5.30;;;18.30;82.40;;;;;;6368965;22;20005;-75
2022/05/09 03:37:57;;;;;;;5.88;4.70;;;18.30;80.80;;;;;;6369551;22;20078;-75
2022/05/09 03:40:22;;;;;;;7.18;6.47;;;18.30;81.40;;;;;;6368799;22;20002;-75
2022/05/09 03:42:48;;;;;;;5.85;4.82;;;18.10;79.30;;;;;;6368982;22;19999;-75
2022/05/09 03:45:14;;;;;;;6.05;4.90;;;18.10;80.60;;;;;;6368442;22;19994;-75
2022/05/09 03:47:41;;;;;;;5.97;5.38;;;18.10;80.50;;;;;;6368604;22;20052;-75
2022/05/09 03:50:08;;;;;;;6.35;4.95;;;18.20;79.80;;;;;;6367952;22;20010;-74
2022/05/09 03:52:34;;;;;;;5.00;4.28;;;18.20;79.80;;;;;;6368335;22;19998;-74
2022/05/09 03:55:00;;;;;;;6.03;4.28;;;18.20;79.70;;;;;;6368542;22;20051;-75
2022/05/09 03:57:26;;;;;;;6.40;4.72;;;18.30;79.80;;;;;;6341150;22;20006;-74
2022/05/09 03:59:51;;;;;;;5.28;4.78;;;18.30;80.20;;;;;;6367908;22;20127;-76
2022/05/09 04:02:17;;;;;;;4.85;4.35;;;18.40;80.50;;;;;;6369207;22;19999;-81
2022/05/09 04:04:43;;;;;;;5.50;4.88;;;18.40;80.70;;;;;;6369513;22;20002;-81
2022/05/09 04:07:09;;;;;;;4.85;4.35;;;18.30;80.70;;;;;;6369206;22;20010;-81
2022/05/09 04:09:36;;;;;;;8.10;5.10;;;18.40;80.80;;;;;;6368841;22;20025;-81
2022/05/09 04:12:02;;;;;;;5.20;4.70;;;18.40;80.90;;;;;;6369411;22;19998;-81
2022/05/09 04:17:14;;;;;;;5.82;4.35;;;18.30;80.40;;;;;;6368406;22;20106;-81
2022/05/09 04:19:41;;;;;;;5.10;4.45;;;18.30;80.50;;;;;;6369576;22;20050;-81
2022/05/09 04:22:07;;;;;;;5.13;4.63;;;18.30;80.10;;;;;;6367439;22;20062;-81
2022/05/09 04:24:33;;;;;;;5.25;4.75;;;18.30;80.10;;;;;;6341494;22;20093;-80
2022/05/09 04:27:00;;;;;;;6.38;4.70;;;18.30;80.80;;;;;;6368767;22;20484;-81
2022/05/09 04:29:27;;;;;;;6.75;4.43;;;18.30;80.40;;;;;;6341948;22;20026;-81
2022/05/09 04:31:53;;;;;;;6.65;4.75;;;18.20;80.50;;;;;;6369097;22;19998;-82
2022/05/09 04:34:18;;;;;;;6.00;4.93;;;18.30;80.40;;;;;;6370205;22;20033;-81
2022/05/09 04:36:44;;;;;;;5.43;4.90;;;18.30;80.40;;;;;;6369326;22;19999;-78
2022/05/09 04:39:10;;;;;;;5.20;4.70;;;18.30;80.50;;;;;;6369790;22;20006;-77
2022/05/09 04:41:36;;;;;;;7.60;4.57;;;18.30;80.70;;;;;;6369733;22;20119;-79
2022/05/09 04:44:05;;;;;;;6.80;6.00;;;18.30;80.50;;;;;;6341154;22;19999;-77
2022/05/09 04:46:32;;;;;;;6.53;5.80;;;18.10;78.20;;;;;;6341509;22;20011;-78
2022/05/09 04:48:58;;;;;;;10.35;5.57;;;17.80;76.70;;;;;;6369238;22;20045;-78
2022/05/09 04:51:23;;;;;;;10.38;6.85;;;17.70;77.20;;;;;;6369083;22;19999;-79
2022/05/09 04:53:49;;;;;;;5.20;4.70;;;17.60;77.10;;;;;;6368605;22;20063;-78
2022/05/09 04:56:17;;;;;;;6.28;4.57;;;17.60;77.60;;;;;;6369039;22;20026;-79
2022/05/09 04:58:43;;;;;;;5.80;4.72;;;17.70;78.40;;;;;;6367439;22;19999;-73
2022/05/09 05:01:09;;;;;;;5.93;3.85;;;17.70;78.10;;;;;;6368475;22;19998;-73
2022/05/09 05:03:35;;;;;;;5.80;5.00;;;17.70;77.50;;;;;;6340888;22;19998;-76
2022/05/09 05:06:01;;;;;;;5.50;4.20;;;17.80;77.10;;;;;;6369811;22;20006;-81
2022/05/09 05:08:33;;;;;;;5.22;4.55;;;17.80;77.10;;;;;;6369977;22;20044;-77
2022/05/09 05:11:00;;;;;;;4.28;3.88;;;17.90;77.40;;;;;;6370764;22;20041;-80
2022/05/09 05:13:27;;;;;;;7.90;5.30;;;17.90;76.70;;;;;;6370722;22;19998;-77
2022/05/09 05:15:54;;;;;;;7.78;6.60;;;17.90;75.30;;;;;;6369651;22;20080;-77
2022/05/09 05:18:26;;;;;;;12.00;7.47;;;17.80;74.60;;;;;;6370652;22;20093;-78
2022/05/09 05:20:52;;;;;;;5.88;4.70;;;17.60;75.40;;;;;;6343048;22;20006;-78
2022/05/09 05:23:18;;;;;;;8.77;6.32;;;17.60;76.60;;;;;;6371128;22;20001;-77
2022/05/09 05:25:46;;;;;;;7.72;4.90;;;17.60;76.10;;;;;;6369216;22;20024;-80
2022/05/09 05:28:15;;;;;;;11.43;6.95;;;17.60;76.60;;;;;;6371785;22;19999;-78
2022/05/09 05:30:41;;;;;;;5.13;4.55;;;17.50;75.60;;;;;;6371012;22;20002;-76
2022/05/09 05:33:07;;;;;;;4.82;4.13;;;17.60;76.80;;;;;;6370849;22;20363;-75
2022/05/09 05:35:33;;;;;;;9.50;5.22;;;17.80;76.70;;;;;;6342240;22;20050;-76
2022/05/09 05:38:12;;;;;;;6.72;4.50;;;17.90;75.80;;;;;;6370617;22;20298;-89
2022/05/09 05:40:40;;;;;;;4.13;3.50;;;17.80;75.40;;;;;;6340563;22;20009;-75
2022/05/09 05:43:05;;;;;;;7.95;4.65;;;17.90;75.70;;;;;;6369773;22;19998;-81
2022/05/09 05:45:31;;;;;;;4.80;3.60;;;18.10;76.40;;;;;;6370812;22;19995;-80
2022/05/09 05:47:57;;;;;;;7.30;5.40;;;18.20;75.90;;;;;;6369192;22;20002;-81
2022/05/09 05:50:23;;;;;;;4.82;3.75;;;18.20;74.70;;;;;;6370913;22;19998;-80
2022/05/09 05:52:49;;;;;;;6.88;4.22;;;18.20;74.80;;;;;;6371263;22;20002;-80
2022/05/09 05:55:18;;;;;;;5.03;3.95;;;18.30;75.00;;;;;;6370874;22;20332;-80
2022/05/09 05:57:45;;;;;;;4.43;3.78;;;18.40;75.60;;;;;;6371172;22;20002;-80
2022/05/09 06:00:22;;;;;;;3.97;3.40;;;18.50;75.90;;;;;;6370996;22;20086;-80
2022/05/09 06:02:49;;;;;;;4.63;3.53;;;18.60;75.80;;;;;;6370928;22;20047;-80
2022/05/09 06:05:18;;;;;;;6.47;4.47;;;18.60;75.10;;;;;;6370559;22;20009;-80
2022/05/09 06:07:58;;;;;;;4.85;4.20;;;18.60;75.40;;;;;;6370683;22;20061;-80
2022/05/09 06:10:26;;;;;;;;;;;18.60;74.40;;;;;;6371871;22;20040;-80
2022/05/09 06:12:53;;;;;;;4.13;2.95;;;18.60;74.40;;;;;;6343401;22;20201;-75
2022/05/09 06:15:24;;;;;;;3.63;3.05;;;18.60;74.50;;;;;;6342670;22;20121;-74
2022/05/09 06:17:51;;;;;;;6.88;4.97;;;18.70;74.60;;;;;;6342869;22;20090;-75
2022/05/09 06:20:17;;;;;;;8.40;5.05;;;18.70;73.20;;;;;;6370595;22;20324;-75
2022/05/09 06:22:43;;;;;;;6.65;4.45;;;18.70;72.20;;;;;;6370874;22;19998;-75
2022/05/09 06:25:13;;;;;;;4.35;3.03;;;18.70;73.70;;;;;;6369724;22;19998;-75
2022/05/09 06:27:40;;;;;;;;;;;18.80;73.60;;;;;;6370934;22;20005;-75
2022/05/09 06:30:09;;;;;;;5.45;3.45;;;18.70;72.40;;;;;;6370398;22;19899;-74
2022/05/09 06:32:34;;;;;;;5.65;4.10;;;18.80;72.90;;;;;;6370945;22;19998;-75
2022/05/09 06:35:01;;;;;;;3.30;3.00;;;18.70;71.60;;;;;;6370607;22;20009;-75
2022/05/09 06:37:29;;;;;;;5.22;3.20;;;18.90;72.40;;;;;;6370247;22;20079;-75
2022/05/09 06:39:55;;;;;;;4.75;3.20;;;19.00;72.30;;;;;;6369928;22;20012;-75
2022/05/09 06:42:20;;;;;;;6.07;3.30;;;19.10;72.50;;;;;;6370202;22;20026;-75
2022/05/09 06:44:46;;;;;;;3.50;2.70;;;19.20;72.40;;;;;;6342372;22;20300;-74
2022/05/09 06:47:12;;;;;;;5.97;3.35;;;19.30;72.10;;;;;;6370771;22;19995;-74
2022/05/09 06:49:38;;;;;;;7.18;4.50;;;19.30;69.90;;;;;;6369669;22;20007;-75
2022/05/09 06:52:04;;;;;;;3.35;2.95;;;19.30;69.70;;;;;;6341680;22;20006;-74
2022/05/09 06:54:30;;;;;;;3.58;3.25;;;19.40;70.30;;;;;;6341579;22;20002;-75
2022/05/09 06:56:56;;;;;;;4.95;3.03;;;19.50;69.60;;;;;;6341361;22;20017;-75
2022/05/09 06:59:22;;;;;;;5.75;2.72;;;19.60;70.20;;;;;;6369297;22;20333;-74
2022/05/09 07:01:50;;;;;;;4.90;3.10;;;19.60;70.00;;;;;;6370198;22;20002;-75
2022/05/09 07:04:17;;;;;;;4.15;3.13;;;19.70;70.20;;;;;;6369345;22;20002;-75
2022/05/09 07:06:43;;;;;;;8.63;4.22;;;19.80;69.20;;;;;;6369607;22;19994;-75
2022/05/09 07:09:12;;;;;;;5.85;3.53;;;19.80;67.50;;;;;;6369238;22;19999;-75
2022/05/09 07:11:39;;;;;;;5.35;3.65;;;19.80;67.90;;;;;;6369688;22;20296;-75
2022/05/09 07:14:05;;;;;;;7.88;2.92;;;19.90;67.80;;;;;;6368486;22;19998;-75
2022/05/09 07:16:30;;;;;;;3.28;2.70;;;20.00;68.10;;;;;;6366563;22;20002;-75
2022/05/09 07:18:57;;;;;;;5.55;3.45;;;20.20;68.10;;;;;;6368476;22;20006;-75
2022/05/09 07:21:23;;;;;;;4.97;2.88;;;20.20;66.60;;;;;;6368805;22;20003;-75
2022/05/09 07:23:49;;;;;;;3.72;2.97;;;20.30;67.10;;;;;;6368999;22;19999;-75
2022/05/09 07:26:15;;;;;;;2.97;2.58;;;20.40;66.30;;;;;;6368751;22;19995;-75
2022/05/09 07:28:42;;;;;;;6.32;2.97;;;20.50;66.70;;;;;;6368145;22;20005;-75
2022/05/09 07:31:08;;;;;;;5.78;3.15;;;20.60;66.50;;;;;;6369049;22;20005;-75
2022/05/09 07:33:35;;;;;;;4.53;2.95;;;20.60;65.70;;;;;;6369595;22;20002;-75
2022/05/09 07:36:01;;;;;;;6.80;2.97;;;20.70;66.30;;;;;;6369138;22;20049;-75
2022/05/09 07:38:27;;;;;;;4.03;2.90;;;20.80;64.80;;;;;;6361082;22;20085;-75
2022/05/09 07:40:54;;;;;;;4.35;3.10;;;20.80;65.70;;;;;;6340424;22;20030;-75
2022/05/09 07:43:25;;;;;;;3.00;2.60;;;20.90;65.80;;;;;;6339368;22;20003;-75
2022/05/09 07:45:53;;;;;;;4.15;3.20;;;21.00;65.70;;;;;;6342092;22;20416;-75
2022/05/09 07:48:20;;;;;;;3.85;2.50;;;21.10;65.30;;;;;;6368958;22;20006;-75
2022/05/09 07:50:46;;;;;;;3.08;2.70;;;21.20;65.00;;;;;;6369351;22;20003;-75
2022/05/09 07:53:14;;;;;;;5.93;3.00;;;21.20;65.10;;;;;;6369425;22;20365;-75
2022/05/09 07:55:42;;;;;;;6.50;3.95;;;21.30;65.10;;;;;;6369502;22;20049;-75
2022/05/09 07:58:09;;;;;;;5.15;3.03;;;21.30;63.70;;;;;;6341849;22;19998;-75
2022/05/09 08:00:36;;;;;;;4.85;3.05;;;21.20;64.50;;;;;;6369673;22;19999;-75
2022/05/09 08:03:03;;;;;;;6.60;3.83;;;21.40;65.40;;;;;;6340930;22;20010;-75
2022/05/09 08:05:29;;;;;;;3.92;3.55;;;21.40;63.20;;;;;;6369687;22;20006;-75
2022/05/09 08:07:54;;;;;;;5.55;3.42;;;21.50;63.10;;;;;;6369623;22;20002;-75
2022/05/09 08:10:21;;;;;;;9.05;4.00;;;21.60;63.60;;;;;;6369907;22;19998;-75
2022/05/09 08:12:48;;;;;;;3.03;2.72;;;21.70;62.70;;;;;;6369356;22;20294;-75
2022/05/09 08:15:17;;;;;;;3.05;2.60;;;21.80;63.60;;;;;;6369437;22;20452;-75
2022/05/09 08:17:45;;;;;;;2.75;2.45;;;21.90;63.90;;;;;;6369232;22;20025;-75
2022/05/09 08:20:12;;;;;;;5.28;2.40;;;22.00;63.60;;;;;;6342007;22;20014;-75
2022/05/09 08:22:38;;;;;;;6.55;3.10;;;22.10;63.90;;;;;;6369088;22;19998;-75
2022/05/09 08:25:05;;;;;;;4.80;2.65;;;22.30;64.40;;;;;;6342292;22;19998;-75
2022/05/09 08:27:32;;;;;;;3.65;2.60;;;22.30;64.00;;;;;;6369424;22;20022;-75
2022/05/09 08:29:58;;;;;;;4.38;3.03;;;22.50;63.40;;;;;;6369344;22;20444;-76
2022/05/09 08:32:25;;;;;;;4.32;2.90;;;22.50;62.70;;;;;;6369220;22;20002;-76
2022/05/09 08:34:51;;;;;;;4.28;2.80;;;22.70;62.60;;;;;;6369416;22;20010;-76
2022/05/09 08:37:21;;;;;;;3.58;2.90;;;22.70;62.60;;;;;;6343625;22;20062;-76
2022/05/09 08:39:47;;;;;;;4.30;2.70;;;22.80;62.60;;;;;;6371276;22;20033;-75
2022/05/09 08:42:21;;;;;;;4.43;2.90;;;22.90;63.00;;;;;;6369684;22;20362;-75
2022/05/09 08:44:57;;;;;;;4.88;2.63;;;22.90;62.90;;;;;;6341861;22;20006;-75
2022/05/09 08:47:38;;;;;;;5.90;3.33;;;23.10;62.40;;;;;;6341766;22;20002;-76
2022/05/09 08:50:21;;;;;;;4.90;2.50;;;23.20;60.40;;;;;;6371281;22;20010;-74
2022/05/09 08:52:49;;;;;;;5.57;2.92;;;23.20;61.40;;;;;;6371122;22;20009;-75
2022/05/09 08:55:23;;;;;;;10.40;3.85;;;23.30;60.40;;;;;;6370898;22;20454;-75
2022/05/09 08:58:14;;;;;;;3.95;2.60;;;23.30;60.10;;;;;;6371416;22;20022;-74
2022/05/09 09:01:03;;;;;;;3.97;2.72;;;23.40;60.60;;;;;;6371128;22;20056;-80
2022/05/09 09:03:32;;;;;;;4.30;3.90;;;23.50;60.00;;;;;;6371371;22;20003;-79
2022/05/09 09:06:07;;;;;;;7.35;3.65;;;23.50;57.00;;;;;;6371769;22;19999;-79
2022/05/09 09:08:52;;;;;;;5.05;2.75;;;23.50;56.30;;;;;;6371565;22;20424;-79
2022/05/09 09:11:46;;;;;;;3.30;2.60;;;23.60;58.80;;;;;;6371285;22;20005;-80
2022/05/09 09:14:42;;;;;;;5.30;3.17;;;23.70;58.40;;;;;;6370654;22;20011;-79
2022/05/09 09:17:24;;;;;;;4.03;3.00;;;23.80;60.20;;;;;;6371899;22;19998;-79
2022/05/09 09:19:56;;;;;;;4.55;3.20;;;23.90;58.80;;;;;;6371088;22;19998;-79
2022/05/09 09:22:34;;;;;;;3.03;2.78;;;24.00;58.90;;;;;;6371316;22;20325;-79
2022/05/09 09:25:18;;;;;;;4.75;3.05;;;24.10;59.40;;;;;;6342830;22;20006;-79
2022/05/09 09:27:53;;;;;;;2.92;2.50;;;24.30;58.90;;;;;;6343168;22;20084;-79
2022/05/09 09:30:24;;;;;;;3.33;2.72;;;24.40;58.50;;;;;;6371183;22;20014;-80
2022/05/09 09:33:03;;;;;;;4.65;3.05;;;24.50;57.70;;;;;;6370905;22;20455;-79
2022/05/09 09:35:48;;;;;;;3.80;2.90;;;24.50;57.80;;;;;;6370801;22;20002;-79
2022/05/09 09:38:41;;;;;;;3.63;2.70;;;24.70;58.20;;;;;;6370246;22;20066;-79
2022/05/09 09:41:18;;;;;;;3.35;2.92;;;24.80;57.40;;;;;;6369997;22;20440;-79
2022/05/09 09:43:46;;;;;;;4.25;2.65;;;24.80;57.00;;;;;;6342315;22;20472;-80
2022/05/09 09:46:12;;;;;;;6.05;4.30;;;24.90;57.20;;;;;;6370424;22;20002;-81
2022/05/09 09:48:39;;;;;;;3.60;2.60;;;25.00;52.80;;;;;;6342444;22;20015;-80
2022/05/09 09:51:10;;;;;;;5.00;2.70;;;25.00;55.50;;;;;;6371257;22;19994;-81
2022/05/09 09:53:36;;;;;;;5.10;2.63;;;25.10;55.90;;;;;;6342760;22;20026;-80
2022/05/09 09:56:27;;;;;;;3.17;2.83;;;25.10;55.70;;;;;;6361756;22;20009;-79
2022/05/09 09:58:59;;;;;;;3.63;2.58;;;25.20;55.20;;;;;;6370474;22;19994;-79
2022/05/09 10:01:32;;;;;;;4.88;2.67;;;25.30;55.70;;;;;;6342672;22;20059;-79
2022/05/09 10:04:13;;;;;;;2.67;2.40;;;25.40;55.50;;;;;;6370434;22;20002;-79
2022/05/09 10:07:06;;;;;;;2.92;2.50;;;25.50;55.40;;;;;;6370513;22;19998;-80
2022/05/09 10:09:44;;;;;;;4.38;2.75;;;25.70;55.50;;;;;;6355051;22;19998;-80
2022/05/09 10:12:18;;;;;;;4.07;2.80;;;25.80;55.90;;;;;;6369955;22;19999;-79
2022/05/09 10:14:44;;;;;;;4.55;2.72;;;26.00;54.40;;;;;;6367933;22;19998;-80
2022/05/09 10:17:27;;;;;;;4.57;2.90;;;26.10;55.10;;;;;;6368218;22;20077;-79
2022/05/09 10:19:55;;;;;;;4.57;3.20;;;26.20;54.60;;;;;;6368837;22;20327;-80
2022/05/09 10:25:24;;;;;;;4.75;2.80;;;26.30;52.90;;;;;;6367280;22;20055;-80
2022/05/09 10:28:18;;;;;;;5.32;3.20;;;26.40;53.50;;;;;;6366967;22;19998;-80
2022/05/09 10:30:48;;;;;;;3.33;2.70;;;26.50;52.00;;;;;;6367715;22;19999;-80
2022/05/09 10:33:56;;;;;;;5.28;3.17;;;26.50;52.50;;;;;;6369331;22;20002;-80
2022/05/09 10:36:36;;;;;;;3.38;3.00;;;26.60;53.10;;;;;;6317553;22;20078;-80
2022/05/09 10:39:13;;;;;;;3.22;2.80;;;26.70;53.20;;;;;;6369681;22;20002;-79
2022/05/09 10:41:47;;;;;;;3.60;2.92;;;26.90;53.20;;;;;;6341227;22;20002;-80
2022/05/09 10:44:47;;;;;;;3.80;2.80;;;27.00;52.70;;;;;;6369439;22;20020;-80
2022/05/09 10:47:34;;;;;;;3.17;2.40;;;27.10;52.80;;;;;;6367544;22;20002;-80
2022/05/09 10:50:25;;;;;;;3.47;2.58;;;27.30;51.00;;;;;;6369646;22;20455;-81
2022/05/09 10:53:16;;;;;;;4.30;2.70;;;27.30;52.10;;;;;;6368507;22;20009;-80
2022/05/09 10:56:16;;;;;;;4.63;2.92;;;27.40;52.30;;;;;;6368185;22;20451;-81
2022/05/09 10:58:44;;;;;;;;;;;27.40;51.50;;;;;;6368430;22;20444;-79
2022/05/09 11:01:19;;;;;;;3.35;2.55;;;27.60;51.80;;;;;;6366460;22;20247;-79
2022/05/09 11:03:45;;;;;;;3.25;2.90;;;27.70;51.60;;;;;;6369540;22;19995;-80
2022/05/09 11:06:36;;;;;;;4.82;2.88;;;27.70;51.50;;;;;;6369647;22;19994;-80
2022/05/09 11:09:20;;;;;;;;;;;27.80;49.80;;;;;;6370189;22;20048;-79
2022/05/09 11:12:03;;;;;;;3.10;2.30;;;27.90;49.40;;;;;;6368976;22;19980;-79
2022/05/09 11:14:36;;;;;;;3.63;2.90;;;27.90;51.10;;;;;;6342034;22;20002;-79
2022/05/09 11:17:24;;;;;;;4.22;2.90;;;27.90;51.30;;;;;;6369452;22;20097;-79
2022/05/09 11:20:11;;;;;;;2.88;2.50;;;28.00;48.90;;;;;;6368913;22;19998;-81
2022/05/09 11:22:45;;;;;;;3.50;3.00;;;28.10;49.20;;;;;;6366488;22;20055;-82
2022/05/09 11:25:14;;;;;;;4.32;2.95;;;28.20;48.50;;;;;;6368255;22;20054;-81
2022/05/09 11:28:04;;;;;;;3.90;2.47;;;28.40;48.60;;;;;;6338221;22;20005;-78
2022/05/09 11:30:36;;;;;;;3.17;2.60;;;28.80;48.70;;;;;;6341637;22;20003;-79
2022/05/09 11:33:34;;;;;;;3.38;2.83;;;29.40;47.90;;;;;;6368766;22;20009;-80
2022/05/09 11:36:35;;;;;;;4.13;2.95;;;30.00;44.90;;;;;;6369925;22;20050;-73
2022/05/09 11:39:15;;;;;;;3.10;2.80;;;30.50;43.30;;;;;;6302761;22;20009;-79
2022/05/09 11:45:07;;;;;;;5.30;2.80;;;31.20;42.60;;;;;;6249100;22;20017;-79
2022/05/09 11:48:13;;;;;;;3.50;2.88;;;31.70;44.70;;;;;;6370157;22;19994;-80
2022/05/09 11:50:59;;;;;;;4.32;2.70;;;32.00;44.20;;;;;;6370897;22;20081;-79
2022/05/09 11:53:28;;;;;;;4.05;2.90;;;32.30;42.70;;;;;;6370016;22;20009;-79
2022/05/09 11:55:54;;;;;;;5.15;2.85;;;32.50;42.70;;;;;;6370058;22;19998;-80
2022/05/09 11:58:21;;;;;;;4.22;2.90;;;32.60;42.50;;;;;;6342741;22;20009;-80
2022/05/09 12:00:50;;;;;;;3.17;2.53;;;32.80;43.70;;;;;;6370435;22;20002;-79
2022/05/09 12:03:38;;;;;;;4.93;2.90;;;33.00;40.40;;;;;;6342070;22;20382;-80
2022/05/09 12:06:05;;;;;;;5.70;2.90;;;33.10;42.70;;;;;;6370515;22;20047;-80
2022/05/09 12:08:48;;;;;;;3.55;2.70;;;33.20;40.80;;;;;;6370674;22;20073;-80
2022/05/09 12:11:25;;;;;;;6.07;3.10;;;33.30;40.90;;;;;;6370151;22;19999;-80
2022/05/09 12:13:53;;;;;;;2.80;2.58;;;33.50;40.50;;;;;;6369829;22;19999;-80
2022/05/09 12:16:37;;;;;;;3.75;2.97;;;33.60;40.40;;;;;;6370399;22;19999;-80
2022/05/09 12:19:19;;;;;;;5.80;3.15;;;33.80;40.00;;;;;;6370301;22;20028;-80
2022/05/09 12:22:25;;;;;;;2.53;2.30;;;34.00;39.90;;;;;;6369966;22;20005;-80
2022/05/09 12:24:51;;;;;;;3.22;2.90;;;34.20;39.10;;;;;;6348511;22;20215;-81
2022/05/09 12:27:38;;;;;;;3.75;3.08;;;34.40;36.20;;;;;;6369138;22;20421;-76
2022/05/09 12:30:33;;;;;;;6.70;2.90;;;34.50;38.20;;;;;;6369243;22;19998;-75
2022/05/09 12:32:58;;;;;;;4.40;3.20;;;34.70;37.20;;;;;;6369170;22;20049;-75
2022/05/09 12:35:24;;;;;;;3.70;2.70;;;34.90;36.80;;;;;;6368028;22;20041;-75
2022/05/09 12:37:50;;;;;;;4.65;3.30;;;35.00;36.40;;;;;;6369210;22;19998;-75
2022/05/09 12:40:25;;;;;;;4.10;2.67;;;35.10;36.00;;;;;;6369785;22;20009;-75
2022/05/09 12:42:58;;;;;;;4.95;2.92;;;35.40;36.00;;;;;;6368956;22;20065;-81
2022/05/09 12:45:25;;;;;;;3.30;2.67;;;35.60;35.60;;;;;;6369280;22;19994;-81
2022/05/09 12:47:51;;;;;;;4.32;3.08;;;35.70;34.70;;;;;;6367498;22;19998;-82
2022/05/09 12:50:30;;;;;;;4.65;2.70;;;35.90;34.40;;;;;;6368820;22;20033;-81
2022/05/09 12:53:03;;;;;;;3.90;2.77;;;36.00;34.10;;;;;;6368566;22;20428;-81
2022/05/09 12:55:56;;;;;;;3.17;2.75;;;35.90;33.90;;;;;;6369586;22;20051;-82
2022/05/09 12:58:30;;;;;;;5.95;2.40;;;36.00;34.30;;;;;;6369673;22;20077;-76
2022/05/09 13:01:03;;;;;;;5.72;2.70;;;36.10;33.80;;;;;;6367966;22;20002;-76
2022/05/09 13:03:29;;;;;;;4.80;3.10;;;35.90;33.00;;;;;;6368493;22;20018;-76
2022/05/09 13:05:55;;;;;;;3.33;2.70;;;35.90;33.30;;;;;;6340650;22;20005;-76
2022/05/09 13:08:21;;;;;;;3.40;2.60;;;36.00;32.70;;;;;;6369401;22;20009;-76
2022/05/09 13:10:51;;;;;;;4.47;3.03;;;36.10;32.90;;;;;;6369314;22;20325;-76
2022/05/09 13:13:34;;;;;;;3.13;2.72;;;36.10;32.70;;;;;;6368743;22;19998;-76
2022/05/09 13:16:01;;;;;;;4.88;2.50;;;36.20;32.60;;;;;;6369587;22;20444;-75
2022/05/09 13:18:30;;;;;;;4.38;3.10;;;36.20;31.90;;;;;;6369890;22;20007;-76
2022/05/09 13:21:08;;;;;;;4.57;3.05;;;36.20;32.10;;;;;;6341806;22;20094;-76